Redstone, Colorado
Current Conditions -  °F | °C
As of 5:53 PM on Monday 24 Nov 2014 (Local Time) from KASE Reporting Station
Light Snow Light Snow  
Wind Chill: 11°   Ceiling: 2900
Heat Index: 20°   Visibility: 2mi
Dew Point: 16°   Wind: 7mph
Humidity: 85%   Direction: 10°N
Pressure: 30.23"   Gusts: NA
Location:  39.2397°N, 107.215°W
Report Text: KASE 250053Z 01006KT 2SM -SN BR FEW017 OVC029 M07/M09 A3023 RMK AO2 SNB26 SLP263 P0000 T10671089
Loading
Personal Weather Stations






























Interactive Weather Map New forecast layout! Learn more

10-Day Weather Forecast

Advertisements
Track Severe Weather on mobile